Time;durP1;ratioP1;P1;durP2;ratioP2;P2;SDS_P1;SDS_P2;PMS_P1;PMS_P2;Temp;Humidity;BMP_temperature;BMP_pressure;BME280_temperature;BME280_humidity;BME280_pressure;Samples;Min_cycle;Max_cycle;Signal;HPM_P1;HPM_P2
2024/03/23 00:00:30;;;;;;;0.73;0.40;;;6.30;1.00;;;;;;4965889;28;20461;-76
2024/03/23 00:02:59;;;;;;;0.55;0.38;;;6.30;1.00;;;;;;4972578;28;20082;-76
2024/03/23 00:05:26;;;;;;;0.30;0.30;;;6.30;1.00;;;;;;5000913;28;20053;-76
2024/03/23 00:07:53;;;;;;;0.45;0.32;;;6.30;1.00;;;;;;4986158;28;20505;-77
2024/03/23 00:10:22;;;;;;;1.02;0.35;;;6.20;1.00;;;;;;4985213;28;20061;-76
2024/03/23 00:12:49;;;;;;;0.60;0.40;;;6.20;1.00;;;;;;4968889;28;20054;-76
2024/03/23 00:15:16;;;;;;;0.25;0.25;;;6.20;1.00;;;;;;4981608;28;20050;-76
2024/03/23 00:17:42;;;;;;;0.75;0.40;;;6.20;1.00;;;;;;4982737;28;20476;-76
2024/03/23 00:20:09;;;;;;;0.60;0.30;;;6.20;1.00;;;;;;4965474;28;20058;-76
2024/03/23 00:22:36;;;;;;;2.45;0.40;;;6.10;1.00;;;;;;4966009;28;20065;-77
2024/03/23 00:25:03;;;;;;;1.05;0.40;;;6.10;1.00;;;;;;4965922;28;20054;-77
2024/03/23 00:27:31;;;;;;;0.55;0.30;;;6.20;1.00;;;;;;4950518;28;20053;-80
2024/03/23 00:29:58;;;;;;;0.45;0.40;;;6.10;1.00;;;;;;4981883;28;20791;-76
2024/03/23 00:32:25;;;;;;;0.47;0.30;;;6.10;1.00;;;;;;4965856;28;20050;-76
2024/03/23 00:34:52;;;;;;;0.68;0.30;;;6.10;1.00;;;;;;4964219;28;20065;-76
2024/03/23 00:37:19;;;;;;;0.38;0.30;;;6.10;1.00;;;;;;4953325;28;20445;-76
2024/03/23 00:39:45;;;;;;;0.70;0.50;;;6.10;1.00;;;;;;5001142;28;20054;-76
2024/03/23 00:42:12;;;;;;;0.38;0.20;;;6.10;1.00;;;;;;4968822;28;20076;-76
2024/03/23 00:44:39;;;;;;;1.02;0.40;;;6.10;1.00;;;;;;5001675;28;20065;-76
2024/03/23 00:47:06;;;;;;;0.47;0.35;;;6.10;1.00;;;;;;4983162;28;20104;-76
2024/03/23 00:49:33;;;;;;;0.95;0.57;;;6.00;1.00;;;;;;4983480;28;20077;-76
2024/03/23 00:52:00;;;;;;;0.77;0.30;;;6.00;1.00;;;;;;4952151;28;20076;-76
2024/03/23 00:54:26;;;;;;;1.20;0.60;;;6.00;1.00;;;;;;4968333;28;20110;-76
2024/03/23 00:56:52;;;;;;;0.40;0.35;;;6.00;1.00;;;;;;4949349;28;20054;-77
2024/03/23 00:59:18;;;;;;;0.65;0.30;;;6.00;1.00;;;;;;4960534;28;20057;-77
2024/03/23 01:01:44;;;;;;;0.75;0.43;;;6.00;1.00;;;;;;4984905;28;20472;-76
2024/03/23 01:04:10;;;;;;;0.93;0.40;;;6.00;1.00;;;;;;4973647;28;20062;-76
2024/03/23 01:06:36;;;;;;;0.60;0.40;;;6.00;1.00;;;;;;4945483;28;20050;-77
2024/03/23 01:09:02;;;;;;;0.90;0.40;;;6.00;1.00;;;;;;4949437;28;20061;-78
2024/03/23 01:11:28;;;;;;;0.65;0.40;;;6.00;1.00;;;;;;4932962;28;20054;-76
2024/03/23 01:13:55;;;;;;;1.08;0.50;;;6.00;1.00;;;;;;4982108;28;20050;-76
2024/03/23 01:16:23;;;;;;;0.90;0.38;;;6.00;1.00;;;;;;5000230;28;20111;-76
2024/03/23 01:18:49;;;;;;;0.40;0.30;;;6.00;1.00;;;;;;4984299;28;20049;-77
2024/03/23 01:21:15;;;;;;;1.15;0.50;;;6.00;1.00;;;;;;4983244;28;20501;-77
2024/03/23 01:23:42;;;;;;;0.20;0.20;;;6.00;1.00;;;;;;4968563;28;20161;-76
2024/03/23 01:26:08;;;;;;;0.60;0.57;;;5.90;1.00;;;;;;4959068;28;20053;-77
2024/03/23 01:28:34;;;;;;;0.30;0.30;;;5.90;1.00;;;;;;4988445;28;20173;-76
2024/03/23 01:31:00;;;;;;;1.48;0.60;;;6.00;1.00;;;;;;4964393;28;20057;-77
2024/03/23 01:33:26;;;;;;;1.05;0.40;;;5.90;1.00;;;;;;4963966;28;20272;-76
2024/03/23 01:35:51;;;;;;;0.65;0.20;;;5.90;1.00;;;;;;4982886;28;20064;-76
2024/03/23 01:38:17;;;;;;;0.68;0.43;;;5.90;1.00;;;;;;4952239;28;20053;-77
2024/03/23 01:40:43;;;;;;;0.73;0.40;;;5.90;1.00;;;;;;4984629;28;20417;-76
2024/03/23 01:43:09;;;;;;;1.30;0.55;;;5.90;1.00;;;;;;4984332;28;20123;-76
2024/03/23 01:45:35;;;;;;;1.13;0.32;;;5.80;1.00;;;;;;4949073;28;20050;-76
2024/03/23 01:48:02;;;;;;;0.90;0.40;;;5.80;1.00;;;;;;4982823;28;20063;-77
2024/03/23 01:50:28;;;;;;;0.20;0.20;;;5.80;1.00;;;;;;4966843;28;20058;-76
2024/03/23 01:52:54;;;;;;;0.93;0.40;;;5.80;1.00;;;;;;4982867;28;20065;-76
2024/03/23 01:55:20;;;;;;;1.70;1.10;;;5.80;1.00;;;;;;4962043;28;20055;-76
2024/03/23 01:57:46;;;;;;;2.22;0.50;;;5.80;1.00;;;;;;4964668;28;20058;-76
2024/03/23 02:00:12;;;;;;;1.08;0.47;;;5.70;1.00;;;;;;4974656;28;20049;-76
2024/03/23 02:02:45;;;;;;;0.82;0.35;;;5.70;1.00;;;;;;4984005;28;20057;-77
2024/03/23 02:05:14;;;;;;;0.52;0.38;;;5.70;1.00;;;;;;4998751;28;20057;-76
2024/03/23 02:07:40;;;;;;;2.42;0.60;;;5.70;1.00;;;;;;4967334;28;20057;-76
2024/03/23 02:10:10;;;;;;;1.98;0.60;;;5.70;1.00;;;;;;4966767;28;20053;-76
2024/03/23 02:12:36;;;;;;;1.00;0.50;;;5.70;1.00;;;;;;4982982;28;20134;-76
2024/03/23 02:15:03;;;;;;;2.03;0.70;;;5.70;1.00;;;;;;4931917;28;20101;-77
2024/03/23 02:17:33;;;;;;;1.13;0.40;;;5.60;1.00;;;;;;4970911;28;20054;-76
2024/03/23 02:19:59;;;;;;;0.43;0.35;;;5.60;1.00;;;;;;4982004;28;20053;-77
2024/03/23 02:22:25;;;;;;;0.63;0.38;;;5.60;1.00;;;;;;4987459;28;20070;-76
2024/03/23 02:24:51;;;;;;;0.60;0.40;;;5.60;1.00;;;;;;4954972;28;20055;-76
2024/03/23 02:27:17;;;;;;;0.55;0.40;;;5.60;1.00;;;;;;4987474;28;20057;-77
2024/03/23 02:29:43;;;;;;;0.50;0.30;;;5.60;1.00;;;;;;4957974;28;20531;-76
2024/03/23 02:32:09;;;;;;;0.77;0.40;;;5.60;1.00;;;;;;4984029;28;20069;-76
2024/03/23 02:34:35;;;;;;;1.08;0.38;;;5.50;1.00;;;;;;4974568;28;20050;-76
2024/03/23 02:37:01;;;;;;;3.30;0.55;;;5.50;1.00;;;;;;4957511;28;20065;-77
2024/03/23 02:39:27;;;;;;;0.85;0.40;;;5.50;1.00;;;;;;5008022;28;20065;-76
2024/03/23 02:41:53;;;;;;;0.77;0.40;;;5.50;1.00;;;;;;4993847;28;20217;-76
2024/03/23 02:44:19;;;;;;;1.17;0.60;;;5.50;1.00;;;;;;4991631;28;20133;-76
2024/03/23 02:46:45;;;;;;;0.88;0.50;;;5.50;1.00;;;;;;5009658;28;20053;-76
2024/03/23 02:49:11;;;;;;;1.05;0.50;;;5.50;1.00;;;;;;4977320;28;20061;-77
2024/03/23 02:51:36;;;;;;;0.30;0.30;;;5.50;1.00;;;;;;4976770;28;20559;-76
2024/03/23 02:54:02;;;;;;;0.38;0.30;;;5.40;1.00;;;;;;5009775;28;20129;-77
2024/03/23 02:56:29;;;;;;;0.40;0.30;;;5.40;1.00;;;;;;4976845;28;20070;-76
2024/03/23 02:58:55;;;;;;;0.70;0.30;;;5.40;1.00;;;;;;4993859;28;20337;-76
2024/03/23 03:01:21;;;;;;;0.60;0.45;;;5.40;1.00;;;;;;4993255;28;20121;-77
2024/03/23 03:03:47;;;;;;;0.60;0.40;;;5.40;1.00;;;;;;4977020;28;20057;-77
2024/03/23 03:06:23;;;;;;;0.90;0.40;;;5.40;1.00;;;;;;4992693;28;20056;-77
2024/03/23 03:08:49;;;;;;;0.70;0.30;;;5.30;1.00;;;;;;4961313;28;20049;-76
2024/03/23 03:11:15;;;;;;;0.40;0.30;;;5.30;1.00;;;;;;4973545;28;20081;-76
2024/03/23 03:13:41;;;;;;;1.90;0.30;;;5.30;1.00;;;;;;4991940;28;20104;-77
2024/03/23 03:16:11;;;;;;;0.55;0.43;;;5.30;1.00;;;;;;4960946;28;20133;-75
2024/03/23 03:18:37;;;;;;;0.45;0.30;;;5.30;1.00;;;;;;4956232;28;20073;-76
2024/03/23 03:21:05;;;;;;;1.27;0.40;;;5.30;1.00;;;;;;4988876;28;20061;-76
2024/03/23 03:23:31;;;;;;;0.25;0.22;;;5.20;1.00;;;;;;4978957;28;20161;-76
2024/03/23 03:25:57;;;;;;;0.50;0.30;;;5.20;1.00;;;;;;4985835;28;20743;-77
2024/03/23 03:28:24;;;;;;;0.30;0.20;;;5.20;1.00;;;;;;4990349;28;20111;-76
2024/03/23 03:30:49;;;;;;;0.25;0.20;;;5.20;1.00;;;;;;4990304;28;20061;-76
2024/03/23 03:33:16;;;;;;;0.90;0.43;;;5.20;1.00;;;;;;4970614;28;20061;-76
2024/03/23 03:35:43;;;;;;;0.28;0.25;;;5.10;1.00;;;;;;4954287;28;20065;-76
2024/03/23 03:38:09;;;;;;;0.57;0.40;;;5.10;1.00;;;;;;4947059;28;20054;-76
2024/03/23 03:40:35;;;;;;;0.80;0.40;;;5.10;1.00;;;;;;4971017;28;20129;-76
2024/03/23 03:43:01;;;;;;;1.40;0.40;;;5.10;1.00;;;;;;4967961;28;20042;-75
2024/03/23 03:45:27;;;;;;;0.25;0.20;;;5.00;7.10;;;;;;4958717;28;20498;-76
2024/03/23 03:47:53;;;;;;;1.55;0.50;;;5.00;5.20;;;;;;4956535;28;20050;-76
2024/03/23 03:50:20;;;;;;;0.30;0.30;;;5.00;7.40;;;;;;4980333;28;20049;-77
2024/03/23 03:52:46;;;;;;;0.50;0.38;;;5.00;10.10;;;;;;4972315;28;20045;-76
2024/03/23 03:55:16;;;;;;;1.25;0.45;;;5.00;9.20;;;;;;4988824;28;20045;-76
2024/03/23 03:57:42;;;;;;;0.70;0.38;;;5.00;5.50;;;;;;4973686;28;20508;-76
2024/03/23 04:00:11;;;;;;;0.20;0.20;;;5.00;7.10;;;;;;4973388;28;20115;-76
2024/03/23 04:02:38;;;;;;;1.35;0.47;;;4.90;15.20;;;;;;4973815;28;20563;-76
2024/03/23 04:05:04;;;;;;;0.30;0.30;;;5.00;11.50;;;;;;4972533;28;20684;-77
2024/03/23 04:07:30;;;;;;;0.82;0.38;;;4.90;12.00;;;;;;4974083;28;20153;-76
2024/03/23 04:09:55;;;;;;;0.85;0.40;;;4.90;13.20;;;;;;4957159;28;20196;-76
2024/03/23 04:12:21;;;;;;;1.48;0.45;;;4.90;8.10;;;;;;4973632;28;20108;-77
2024/03/23 04:14:47;;;;;;;0.95;0.40;;;4.90;11.00;;;;;;4972844;28;20525;-76
2024/03/23 04:17:13;;;;;;;0.90;0.30;;;4.90;10.80;;;;;;4973167;28;20141;-76
2024/03/23 04:19:39;;;;;;;1.27;0.40;;;4.90;13.60;;;;;;4988836;28;20064;-76
2024/03/23 04:22:05;;;;;;;0.52;0.30;;;4.90;12.50;;;;;;4988459;28;20081;-76
2024/03/23 04:24:31;;;;;;;1.15;0.30;;;4.80;11.30;;;;;;4972806;28;20073;-76
2024/03/23 04:26:57;;;;;;;0.70;0.45;;;4.80;14.20;;;;;;4972895;28;20053;-76
2024/03/23 04:29:26;;;;;;;0.93;0.40;;;4.80;11.00;;;;;;4988941;28;20059;-76
2024/03/23 04:31:52;;;;;;;1.80;0.40;;;4.80;12.00;;;;;;4988803;28;20053;-76
2024/03/23 04:34:18;;;;;;;1.10;0.30;;;4.90;15.80;;;;;;4963469;28;20069;-77
2024/03/23 04:36:44;;;;;;;0.93;0.40;;;4.90;12.80;;;;;;4953364;28;20073;-76
2024/03/23 04:39:10;;;;;;;1.13;0.40;;;4.90;13.50;;;;;;4969386;28;20896;-76
2024/03/23 04:41:36;;;;;;;1.48;0.50;;;4.80;13.20;;;;;;4954176;28;20485;-76
2024/03/23 04:44:02;;;;;;;1.42;0.45;;;4.90;12.40;;;;;;4976339;28;20140;-76
2024/03/23 04:46:28;;;;;;;1.73;0.43;;;4.80;16.50;;;;;;4972390;28;20050;-77
2024/03/23 04:48:53;;;;;;;2.53;0.80;;;4.80;18.20;;;;;;4972092;28;20100;-76
2024/03/23 04:51:23;;;;;;;1.08;0.55;;;4.90;17.00;;;;;;4971835;28;20054;-76
2024/03/23 04:53:49;;;;;;;0.93;0.40;;;4.90;18.10;;;;;;4967343;28;20081;-76
2024/03/23 04:56:16;;;;;;;1.38;0.70;;;4.90;12.70;;;;;;4953508;28;20054;-76
2024/03/23 04:58:43;;;;;;;0.57;0.40;;;4.90;12.90;;;;;;4969569;28;20054;-76
2024/03/23 05:01:08;;;;;;;2.33;0.70;;;4.90;15.10;;;;;;4936989;28;20117;-76
2024/03/23 05:03:34;;;;;;;1.52;0.45;;;4.90;15.20;;;;;;4968887;28;20054;-77
2024/03/23 05:06:00;;;;;;;0.75;0.30;;;4.90;12.60;;;;;;4989113;28;20105;-76
2024/03/23 05:08:26;;;;;;;0.52;0.40;;;4.90;14.40;;;;;;4984907;28;20516;-76
2024/03/23 05:10:52;;;;;;;0.93;0.40;;;4.90;15.30;;;;;;5004799;28;20092;-76
2024/03/23 05:13:18;;;;;;;1.48;0.70;;;4.80;17.50;;;;;;5004358;28;20058;-77
2024/03/23 05:15:44;;;;;;;0.93;0.50;;;4.80;16.80;;;;;;4964972;28;20046;-76
2024/03/23 05:18:10;;;;;;;0.95;0.50;;;4.80;16.80;;;;;;4986609;28;20493;-76
2024/03/23 05:20:38;;;;;;;1.40;0.55;;;4.80;15.40;;;;;;4966769;28;20054;-76
2024/03/23 05:23:04;;;;;;;1.75;0.60;;;4.80;14.20;;;;;;4979185;28;20053;-76
2024/03/23 05:25:29;;;;;;;0.85;0.32;;;4.80;17.10;;;;;;4996322;28;20069;-76
2024/03/23 05:27:55;;;;;;;2.28;0.55;;;4.80;16.80;;;;;;4977102;28;20068;-76
2024/03/23 05:30:21;;;;;;;1.05;0.47;;;4.80;14.80;;;;;;4963143;28;20097;-77
2024/03/23 05:32:47;;;;;;;1.38;0.40;;;4.80;14.60;;;;;;5004375;28;20918;-76
2024/03/23 05:35:13;;;;;;;1.50;0.40;;;4.70;16.80;;;;;;4988163;28;20053;-76
2024/03/23 05:37:39;;;;;;;1.25;0.57;;;4.70;14.70;;;;;;4980339;28;20119;-76
2024/03/23 05:40:05;;;;;;;1.20;0.60;;;4.70;16.10;;;;;;4971860;28;20050;-77
2024/03/23 05:42:31;;;;;;;0.63;0.30;;;4.70;16.80;;;;;;4952508;28;20600;-76
2024/03/23 05:44:57;;;;;;;0.98;0.40;;;4.70;20.30;;;;;;4952267;28;20054;-76
2024/03/23 05:47:23;;;;;;;0.73;0.70;;;4.70;16.60;;;;;;4958026;28;20054;-76
2024/03/23 05:49:51;;;;;;;0.77;0.50;;;4.70;28.30;;;;;;4968629;28;20053;-76
2024/03/23 05:52:18;;;;;;;2.17;0.52;;;4.60;16.20;;;;;;4969791;28;20054;-77
2024/03/23 05:54:43;;;;;;;0.68;0.40;;;4.60;17.10;;;;;;4967919;28;20058;-76
2024/03/23 05:57:09;;;;;;;1.25;0.30;;;4.70;16.20;;;;;;4961904;28;20715;-77
2024/03/23 05:59:35;;;;;;;2.08;1.17;;;4.70;18.70;;;;;;4984674;28;20065;-76
2024/03/23 06:02:01;;;;;;;1.00;0.57;;;4.70;16.10;;;;;;4984425;28;20567;-76
2024/03/23 06:04:27;;;;;;;2.80;1.30;;;4.60;20.00;;;;;;4981680;28;20080;-76
2024/03/23 06:06:54;;;;;;;0.32;0.32;;;4.60;15.10;;;;;;4964222;28;20069;-76
2024/03/23 06:09:20;;;;;;;0.90;0.38;;;4.70;18.90;;;;;;4949322;28;20199;-76
2024/03/23 06:11:46;;;;;;;1.50;0.40;;;4.60;19.20;;;;;;4997910;28;20049;-76
2024/03/23 06:14:12;;;;;;;1.80;0.40;;;4.70;18.90;;;;;;4950152;28;20104;-76
2024/03/23 06:16:38;;;;;;;0.98;0.40;;;4.70;20.60;;;;;;4981329;28;20478;-76
2024/03/23 06:19:04;;;;;;;2.83;0.50;;;4.70;17.60;;;;;;4966201;28;20057;-76
2024/03/23 06:21:30;;;;;;;1.58;0.40;;;4.70;23.00;;;;;;4967018;28;20061;-76
2024/03/23 06:23:56;;;;;;;1.77;0.70;;;4.70;20.60;;;;;;4947931;28;20108;-76
2024/03/23 06:26:22;;;;;;;2.08;0.68;;;4.70;22.60;;;;;;4948730;28;20051;-76
2024/03/23 06:28:48;;;;;;;1.17;0.52;;;4.70;21.80;;;;;;4964802;28;20663;-77
2024/03/23 06:31:14;;;;;;;0.70;0.47;;;4.80;22.80;;;;;;4963704;28;20054;-76
2024/03/23 06:33:43;;;;;;;2.15;0.50;;;4.80;23.70;;;;;;4947446;28;20062;-76
2024/03/23 06:36:10;;;;;;;1.48;0.50;;;4.80;24.40;;;;;;4948482;28;20490;-77
2024/03/23 06:38:37;;;;;;;1.00;0.70;;;4.80;22.00;;;;;;4948388;28;20058;-77
2024/03/23 06:41:04;;;;;;;1.02;0.70;;;4.90;22.50;;;;;;4949435;28;20069;-77
2024/03/23 06:43:30;;;;;;;2.60;0.80;;;4.90;20.30;;;;;;4962767;28;20065;-76
2024/03/23 06:45:56;;;;;;;1.70;0.50;;;4.90;17.90;;;;;;4951803;28;20481;-77
2024/03/23 06:48:22;;;;;;;1.63;0.40;;;4.90;16.60;;;;;;4983297;28;20513;-77
2024/03/23 06:50:48;;;;;;;1.00;0.40;;;5.00;18.60;;;;;;4966485;28;20065;-76
2024/03/23 06:53:14;;;;;;;1.38;0.70;;;5.00;17.60;;;;;;4979339;28;20054;-77
2024/03/23 06:55:40;;;;;;;2.13;0.75;;;5.00;18.10;;;;;;4961917;28;20058;-77
2024/03/23 06:58:06;;;;;;;1.13;0.60;;;5.10;12.90;;;;;;4951373;28;20054;-77
2024/03/23 07:00:32;;;;;;;1.02;0.50;;;5.10;14.00;;;;;;4998574;28;20136;-78
2024/03/23 07:02:59;;;;;;;1.77;0.60;;;5.10;14.60;;;;;;4994646;28;20133;-77
2024/03/23 07:05:25;;;;;;;1.50;0.40;;;5.20;11.90;;;;;;4968013;28;20058;-77
2024/03/23 07:07:51;;;;;;;1.15;0.40;;;5.20;13.40;;;;;;4960825;28;20381;-77
2024/03/23 07:10:17;;;;;;;1.65;0.40;;;5.30;10.90;;;;;;4993388;28;20100;-77
2024/03/23 07:12:43;;;;;;;1.40;0.55;;;5.30;14.20;;;;;;4958947;28;20081;-77
2024/03/23 07:15:09;;;;;;;1.02;0.52;;;5.30;8.00;;;;;;4945728;28;20670;-76
2024/03/23 07:17:35;;;;;;;2.15;0.85;;;5.40;6.90;;;;;;4958136;28;20058;-77
2024/03/23 07:20:03;;;;;;;2.10;0.93;;;5.40;3.10;;;;;;4971093;28;20145;-76
2024/03/23 07:22:32;;;;;;;3.08;0.80;;;5.50;1.80;;;;;;4981066;28;20068;-76
2024/03/23 07:25:01;;;;;;;1.13;0.57;;;5.50;1.00;;;;;;4993830;28;20065;-75
2024/03/23 07:27:27;;;;;;;3.63;0.70;;;5.60;1.00;;;;;;4967668;28;20062;-83
2024/03/23 07:29:55;;;;;;;1.38;0.55;;;5.60;1.00;;;;;;4964139;28;20054;-75
2024/03/23 07:32:20;;;;;;;3.08;1.33;;;5.70;1.00;;;;;;4970569;28;20065;-75
2024/03/23 07:34:47;;;;;;;1.42;0.70;;;5.80;1.00;;;;;;4970289;28;20053;-75
2024/03/23 07:37:13;;;;;;;2.45;0.90;;;5.80;1.00;;;;;;4966395;28;20778;-75
2024/03/23 07:39:42;;;;;;;1.00;0.60;;;5.80;1.00;;;;;;4970133;28;20057;-75
2024/03/23 07:42:08;;;;;;;1.52;0.65;;;5.90;1.00;;;;;;4966931;28;20046;-75
2024/03/23 07:44:34;;;;;;;1.55;0.77;;;5.90;1.00;;;;;;4984980;28;20050;-75
2024/03/23 07:47:03;;;;;;;1.92;0.80;;;6.00;1.00;;;;;;4985170;28;20394;-75
2024/03/23 07:49:29;;;;;;;3.42;1.35;;;6.00;1.00;;;;;;4968786;28;20046;-75
2024/03/23 07:51:56;;;;;;;2.00;0.93;;;6.00;1.00;;;;;;4984752;28;20046;-75
2024/03/23 07:54:22;;;;;;;2.70;1.27;;;6.10;1.00;;;;;;4984909;28;20057;-75
2024/03/23 07:56:48;;;;;;;4.45;1.42;;;6.20;1.00;;;;;;4955037;28;20521;-75
2024/03/23 07:59:14;;;;;;;2.08;1.25;;;6.20;1.00;;;;;;4983327;28;20050;-75
2024/03/23 08:01:40;;;;;;;3.67;0.80;;;6.20;1.00;;;;;;4982836;28;20046;-75
2024/03/23 08:04:06;;;;;;;2.10;1.00;;;6.30;1.00;;;;;;4966969;28;20077;-75
2024/03/23 08:06:32;;;;;;;5.05;1.23;;;6.40;1.00;;;;;;4999495;28;20057;-75
2024/03/23 08:09:00;;;;;;;2.88;1.10;;;6.40;1.00;;;;;;4985781;28;20088;-75
2024/03/23 08:11:27;;;;;;;4.85;1.15;;;6.50;1.00;;;;;;4994950;28;20050;-75
2024/03/23 08:13:53;;;;;;;2.50;1.40;;;6.50;1.00;;;;;;4978879;28;20255;-75
2024/03/23 08:16:19;;;;;;;2.28;1.00;;;6.60;1.00;;;;;;4992610;28;20050;-75
2024/03/23 08:18:45;;;;;;;1.67;0.82;;;6.70;1.00;;;;;;4976094;28;20049;-75
2024/03/23 08:21:11;;;;;;;1.63;0.80;;;6.80;1.00;;;;;;4983979;28;20072;-74
2024/03/23 08:23:38;;;;;;;1.80;0.80;;;6.80;1.00;;;;;;4984741;28;20073;-75
2024/03/23 08:26:15;;;;;;;4.55;1.00;;;6.90;1.00;;;;;;4985800;28;20050;-75
2024/03/23 08:28:41;;;;;;;4.00;0.85;;;6.90;1.00;;;;;;4965884;28;20051;-75
2024/03/23 08:31:11;;;;;;;2.20;0.77;;;7.00;1.00;;;;;;4984840;28;20045;-79
2024/03/23 08:33:37;;;;;;;3.40;1.17;;;7.00;1.00;;;;;;5000327;28;20061;-75
2024/03/23 08:36:04;;;;;;;1.48;0.65;;;7.10;1.00;;;;;;5000744;28;20046;-75
2024/03/23 08:38:30;;;;;;;3.08;0.73;;;7.20;1.00;;;;;;5002172;28;20054;-74
2024/03/23 08:41:22;;;;;;;2.95;1.10;;;7.30;1.00;;;;;;5001545;28;20513;-74
2024/03/23 08:43:48;;;;;;;2.38;0.88;;;7.40;1.00;;;;;;4979799;28;20046;-75
2024/03/23 08:46:15;;;;;;;3.75;1.00;;;7.40;1.00;;;;;;5001163;28;20069;-75
2024/03/23 08:48:43;;;;;;;4.85;0.90;;;7.50;1.00;;;;;;4985199;28;20096;-75
2024/03/23 08:51:11;;;;;;;3.47;1.08;;;7.60;1.00;;;;;;4983503;28;20068;-75
2024/03/23 08:53:37;;;;;;;4.15;1.35;;;7.60;1.00;;;;;;4977699;28;20061;-75
2024/03/23 08:56:04;;;;;;;3.13;0.85;;;7.70;1.00;;;;;;4946182;28;20050;-75
2024/03/23 08:58:30;;;;;;;1.83;0.70;;;7.80;1.00;;;;;;4963082;28;20493;-77
2024/03/23 09:00:57;;;;;;;1.77;0.90;;;7.90;1.00;;;;;;4978702;28;20430;-75
2024/03/23 09:03:26;;;;;;;2.55;1.17;;;8.00;1.00;;;;;;4979893;28;20417;-74
2024/03/23 09:05:54;;;;;;;4.32;1.38;;;7.90;1.00;;;;;;4982649;28;20397;-74
2024/03/23 09:08:20;;;;;;;1.40;0.80;;;8.00;1.00;;;;;;4967920;28;20639;-74
2024/03/23 09:10:47;;;;;;;2.40;0.80;;;8.00;1.00;;;;;;4983874;28;20111;-75
2024/03/23 09:13:13;;;;;;;4.00;1.13;;;8.10;1.00;;;;;;4967413;28;20057;-74
2024/03/23 09:15:46;;;;;;;3.20;1.02;;;8.20;1.00;;;;;;4957165;28;20100;-74
2024/03/23 09:18:12;;;;;;;1.50;0.50;;;8.30;1.00;;;;;;4967193;28;20050;-74
2024/03/23 09:20:38;;;;;;;2.70;0.90;;;8.40;1.00;;;;;;4981766;28;20049;-74
2024/03/23 09:23:04;;;;;;;2.40;1.10;;;8.50;1.00;;;;;;4998133;28;20054;-74
2024/03/23 09:25:39;;;;;;;2.60;0.93;;;8.60;1.00;;;;;;4983848;28;20065;-74
2024/03/23 09:28:06;;;;;;;2.17;0.88;;;8.70;1.00;;;;;;4983932;28;20648;-74
2024/03/23 09:30:33;;;;;;;2.72;0.90;;;8.80;1.00;;;;;;4983170;28;20046;-74
2024/03/23 09:32:59;;;;;;;2.28;1.00;;;9.00;1.00;;;;;;4951753;28;20062;-74
2024/03/23 09:35:25;;;;;;;2.40;0.70;;;9.00;1.00;;;;;;4966881;28;20064;-74
2024/03/23 09:37:51;;;;;;;2.63;0.77;;;9.10;1.00;;;;;;4945293;28;20133;-74
2024/03/23 09:40:18;;;;;;;2.45;0.90;;;9.10;1.00;;;;;;4982353;28;20388;-74
2024/03/23 09:42:49;;;;;;;3.80;1.17;;;9.00;1.00;;;;;;4966810;28;20061;-75
2024/03/23 09:45:21;;;;;;;4.13;1.17;;;9.10;1.00;;;;;;4965390;28;20057;-74
2024/03/23 09:47:47;;;;;;;2.47;0.93;;;9.30;1.00;;;;;;4951471;28;20054;-75
2024/03/23 09:50:13;;;;;;;2.47;1.00;;;9.40;1.00;;;;;;4966255;28;20058;-74
2024/03/23 09:52:41;;;;;;;2.22;0.93;;;9.40;1.00;;;;;;4968799;28;20664;-74
2024/03/23 09:55:08;;;;;;;1.85;0.80;;;9.50;1.00;;;;;;4951795;28;20054;-74
2024/03/23 09:57:34;;;;;;;4.28;1.10;;;9.70;1.00;;;;;;4970279;28;20093;-74
2024/03/23 10:00:01;;;;;;;1.73;0.60;;;9.70;1.00;;;;;;5002182;28;20061;-75
2024/03/23 10:02:26;;;;;;;2.33;0.80;;;9.70;1.00;;;;;;4968644;28;20262;-74
2024/03/23 10:04:52;;;;;;;3.97;0.93;;;9.80;1.00;;;;;;4952717;28;20053;-74
2024/03/23 10:07:19;;;;;;;2.42;0.80;;;9.80;1.00;;;;;;4985011;28;20113;-74
2024/03/23 10:09:45;;;;;;;2.05;0.80;;;9.80;1.00;;;;;;4978988;28;20054;-74
2024/03/23 10:12:13;;;;;;;2.25;0.85;;;10.10;1.00;;;;;;4966509;28;20508;-74
2024/03/23 10:14:42;;;;;;;1.70;0.70;;;10.10;1.00;;;;;;4953214;28;20054;-74
2024/03/23 10:17:17;;;;;;;1.83;0.95;;;10.20;1.00;;;;;;4958567;28;20054;-75
2024/03/23 10:19:44;;;;;;;2.33;0.98;;;10.30;1.00;;;;;;4984397;28;20049;-74
2024/03/23 10:22:12;;;;;;;3.25;1.02;;;10.20;1.00;;;;;;4984999;28;20068;-74
2024/03/23 10:24:37;;;;;;;2.50;0.77;;;10.10;1.00;;;;;;4996677;28;20096;-73
2024/03/23 10:27:03;;;;;;;1.65;0.73;;;10.10;1.00;;;;;;4984212;28;20145;-74
2024/03/23 10:29:30;;;;;;;2.20;1.08;;;10.30;1.00;;;;;;5001715;28;20505;-74
2024/03/23 10:32:08;;;;;;;2.95;1.00;;;10.40;1.00;;;;;;5002945;28;20049;-77
2024/03/23 10:34:34;;;;;;;2.72;0.85;;;10.50;1.00;;;;;;4986050;28;20403;-74
2024/03/23 10:37:01;;;;;;;2.65;0.95;;;10.50;1.00;;;;;;4984431;28;20508;-74
2024/03/23 10:39:27;;;;;;;2.33;1.23;;;10.50;1.00;;;;;;4987251;28;20729;-74
2024/03/23 10:41:53;;;;;;;2.38;0.50;;;10.50;1.00;;;;;;5005165;28;20050;-74
2024/03/23 10:44:19;;;;;;;1.30;0.60;;;10.70;1.00;;;;;;4974454;28;20494;-74
2024/03/23 10:46:45;;;;;;;2.45;0.90;;;10.80;1.00;;;;;;4974714;28;20045;-74
2024/03/23 10:49:12;;;;;;;3.55;1.13;;;10.80;1.00;;;;;;4974138;28;20054;-74
2024/03/23 10:51:38;;;;;;;2.25;0.50;;;10.80;1.00;;;;;;5005177;28;20054;-74
2024/03/23 10:54:07;;;;;;;2.53;0.90;;;10.90;1.00;;;;;;4970641;28;20057;-74
2024/03/23 10:56:34;;;;;;;2.30;0.70;;;11.00;1.00;;;;;;4986992;28;20045;-74
2024/03/23 10:59:00;;;;;;;1.23;0.68;;;11.10;1.00;;;;;;4973123;28;20061;-74
2024/03/23 11:01:26;;;;;;;1.58;0.60;;;11.30;1.00;;;;;;4971324;28;20497;-74
2024/03/23 11:03:52;;;;;;;4.38;0.90;;;11.60;1.00;;;;;;4999031;28;20518;-74
2024/03/23 11:06:35;;;;;;;2.10;0.80;;;11.60;1.00;;;;;;4966828;28;20053;-74
2024/03/23 11:09:01;;;;;;;3.05;1.00;;;11.50;1.00;;;;;;4985372;28;20684;-74
2024/03/23 11:11:28;;;;;;;1.65;0.90;;;11.30;1.00;;;;;;4954342;28;20055;-74
2024/03/23 11:13:54;;;;;;;3.55;0.90;;;11.40;1.00;;;;;;4986185;28;20061;-74
2024/03/23 11:16:31;;;;;;;2.78;1.00;;;11.40;1.00;;;;;;4954613;28;20054;-74
2024/03/23 11:19:36;;;;;;;1.92;0.90;;;11.40;1.00;;;;;;4955089;28;20054;-74
2024/03/23 11:22:03;;;;;;;1.27;0.73;;;11.40;1.00;;;;;;4913506;29;20058;-74
2024/03/23 11:24:28;;;;;;;1.98;0.93;;;11.50;1.00;;;;;;4959901;28;20058;-75
2024/03/23 11:26:54;;;;;;;1.92;0.88;;;11.70;1.00;;;;;;4954555;28;20074;-74
2024/03/23 11:29:20;;;;;;;2.42;0.90;;;11.60;1.00;;;;;;4989493;28;20482;-74
2024/03/23 11:31:52;;;;;;;2.50;1.02;;;11.70;1.00;;;;;;4994247;28;20514;-74
2024/03/23 11:34:21;;;;;;;2.05;1.00;;;11.90;1.00;;;;;;4948911;28;20568;-75
2024/03/23 11:36:48;;;;;;;2.75;0.90;;;12.20;1.00;;;;;;4956075;28;20600;-75
2024/03/23 11:39:16;;;;;;;2.45;1.00;;;12.40;1.00;;;;;;4963867;28;20489;-74
2024/03/23 11:41:49;;;;;;;2.30;0.90;;;12.30;1.00;;;;;;4964613;28;20058;-74
2024/03/23 11:44:25;;;;;;;2.05;0.80;;;12.20;1.00;;;;;;4963580;28;20058;-75
2024/03/23 11:46:53;;;;;;;1.65;0.80;;;12.30;1.00;;;;;;4998514;28;20500;-74
2024/03/23 11:49:23;;;;;;;1.77;0.68;;;12.50;1.00;;;;;;4984918;28;20115;-74
2024/03/23 11:51:49;;;;;;;1.50;0.85;;;12.50;1.00;;;;;;4974898;28;20054;-75
2024/03/23 11:54:15;;;;;;;2.63;0.85;;;12.40;1.00;;;;;;4979237;28;20501;-75
2024/03/23 11:56:53;;;;;;;1.83;0.90;;;12.30;1.00;;;;;;4987566;28;20060;-75
2024/03/23 11:59:35;;;;;;;2.03;0.80;;;12.20;1.00;;;;;;4986918;28;20401;-75
2024/03/23 12:02:06;;;;;;;1.95;0.73;;;12.00;1.00;;;;;;4982101;28;20062;-75
2024/03/23 12:04:32;;;;;;;1.33;0.70;;;12.00;1.00;;;;;;4952985;28;20483;-75
2024/03/23 12:07:11;;;;;;;2.50;1.00;;;12.20;1.00;;;;;;4985473;28;20086;-75
2024/03/23 12:09:37;;;;;;;2.15;0.55;;;12.60;1.00;;;;;;4981486;28;20132;-75
2024/03/23 12:12:21;;;;;;;1.45;0.50;;;12.70;1.00;;;;;;4983248;28;20908;-75
2024/03/23 12:15:08;;;;;;;2.47;0.90;;;12.70;1.00;;;;;;4993810;28;20097;-75
2024/03/23 12:17:36;;;;;;;0.95;0.82;;;12.60;1.00;;;;;;4975042;28;20099;-75
2024/03/23 12:20:03;;;;;;;2.42;0.98;;;13.00;1.00;;;;;;4981568;28;20069;-75
2024/03/23 12:22:32;;;;;;;2.75;1.33;;;13.10;1.00;;;;;;4997165;28;20072;-74
2024/03/23 12:24:58;;;;;;;1.42;0.75;;;13.30;1.00;;;;;;4989804;28;20064;-75
2024/03/23 12:27:25;;;;;;;2.40;0.80;;;13.30;1.00;;;;;;4982462;28;20050;-75
2024/03/23 12:29:51;;;;;;;1.88;0.82;;;13.80;1.00;;;;;;4980529;28;20119;-75
2024/03/23 12:32:18;;;;;;;1.55;0.60;;;13.90;1.00;;;;;;4966974;28;20058;-75
2024/03/23 12:34:44;;;;;;;1.90;0.80;;;14.10;1.00;;;;;;4946969;28;20797;-75
2024/03/23 12:37:12;;;;;;;2.55;1.00;;;14.10;1.00;;;;;;4966430;28;20050;-75
2024/03/23 12:39:38;;;;;;;2.38;0.75;;;14.40;1.00;;;;;;4950963;28;20085;-74
2024/03/23 12:42:04;;;;;;;2.92;0.80;;;14.50;1.00;;;;;;4950766;28;20331;-74
2024/03/23 12:44:30;;;;;;;1.30;0.80;;;14.40;1.00;;;;;;4968388;28;20114;-74
2024/03/23 12:46:56;;;;;;;1.27;0.65;;;14.10;1.00;;;;;;4963563;28;20046;-74
2024/03/23 12:49:22;;;;;;;2.90;0.93;;;14.20;1.00;;;;;;4965702;28;20054;-75
2024/03/23 12:51:55;;;;;;;2.45;1.02;;;14.10;1.00;;;;;;4965896;28;20052;-75
2024/03/23 12:54:21;;;;;;;2.88;1.13;;;14.10;1.00;;;;;;4962646;28;20517;-75
2024/03/23 12:56:48;;;;;;;1.15;0.70;;;14.10;1.00;;;;;;4995693;28;20050;-75
2024/03/23 12:59:14;;;;;;;1.20;0.80;;;13.90;1.00;;;;;;4998105;28;20062;-74
2024/03/23 13:01:40;;;;;;;1.13;0.60;;;14.10;1.00;;;;;;4966372;28;20046;-74